PWSweather.com
Personal Weather Stations
Station Observations
KNVELKO7
Elko, NV 89801

Elko, NV 89801

Lat: 40.963233, Lon: -115.592836

Elevation: 5230

Station Type: WS-2812

Latest ConditionsUpdated 2:51:46 PM PDT Thursday, May 5, 2016
Currently Today's Max Today's Min Today's Average
Temperature 78.8°F26.0°C 83.0°F28.3°C 44.3°F6.8°C 60.5°F15.8°C
Dew Point 40.7°F4.8°C 48.4°F9.1°C 35.1°F1.7°C 40.1°F4.5°C
Winds 15.4 mph SE24.8 kmh SE 15.4 mph S24.8 kmh S - 5.6 mph 9.0 kmh
Wind Gusts 17.9 mph28.8 kmh 18.8 mph30.3 kmh - -
Humidity 26% 71% 24% 52%
Pressure 29.86 in1011.2 mb 29.98 in1015.2 mb 29.86 in1011.2 mb -
Hour Temp Dew Point Humidity Winds Wind Gusts Pressure Precip Precip Rate Daily Precip Total
02:51 PM 78.8°F26.0°C 40.7°F4.8°C 26% 15.4 mph SE24.8 kmh SE 17.9 mph28.8 kmh 29.86 in1011.2 mb 0.00 in0.0 mm 0.00 in0.0 mm 0.00 in0.0 mm
02:46 PM 78.7°F25.9°C 40.5°F4.7°C 26% 11.0 mph S17.7 kmh S 14.1 mph22.7 kmh 29.86 in1011.2 mb 0.00 in0.0 mm 0.00 in0.0 mm 0.00 in0.0 mm
02:41 PM 78.1°F25.6°C 40.1°F4.5°C 26% 12.3 mph S19.8 kmh S 16.3 mph26.2 kmh 29.86 in1011.2 mb 0.00 in0.0 mm 0.00 in0.0 mm 0.00 in0.0 mm
02:37 PM 78.1°F25.6°C 39.1°F3.9°C 25% 10.6 mph SSE17.1 kmh SSE 16.3 mph26.2 kmh 29.86 in1011.2 mb 0.00 in0.0 mm 0.00 in0.0 mm 0.00 in0.0 mm
02:32 PM 78.3°F25.7°C 39.2°F4.0°C 25% 8.6 mph S13.8 kmh S 15.0 mph24.1 kmh 29.86 in1011.2 mb 0.00 in0.0 mm 0.00 in0.0 mm 0.00 in0.0 mm
02:27 PM 79.2°F26.2°C 40.0°F4.4°C 25% 12.6 mph SE20.3 kmh SE 15.0 mph24.1 kmh 29.86 in1011.2 mb 0.00 in0.0 mm 0.00 in0.0 mm 0.00 in0.0 mm
02:22 PM 79.4°F26.3°C 40.1°F4.5°C 25% 9.4 mph SE15.1 kmh SE 18.3 mph29.5 kmh 29.86 in1011.2 mb 0.00 in0.0 mm 0.00 in0.0 mm 0.00 in0.0 mm
02:17 PM 79.6°F26.4°C 40.2°F4.6°C 25% 14.5 mph S23.3 kmh S 18.3 mph29.5 kmh 29.86 in1011.2 mb 0.00 in0.0 mm 0.00 in0.0 mm 0.00 in0.0 mm
02:12 PM 80.3°F26.8°C 40.9°F4.9°C 25% 14.8 mph S23.8 kmh S 16.8 mph27.0 kmh 29.86 in1011.2 mb 0.00 in0.0 mm 0.00 in0.0 mm 0.00 in0.0 mm
02:07 PM 80.5°F26.9°C 41.0°F5.0°C 25% 12.3 mph S19.8 kmh S 15.9 mph25.6 kmh 29.86 in1011.2 mb 0.00 in0.0 mm 0.00 in0.0 mm 0.00 in0.0 mm
02:02 PM 80.3°F26.8°C 40.9°F4.9°C 25% 10.3 mph S16.6 kmh S 12.8 mph20.6 kmh 29.86 in1011.2 mb 0.00 in0.0 mm 0.00 in0.0 mm 0.00 in0.0 mm
01:56 PM 80.6°F27.0°C 41.2°F5.1°C 25% 10.3 mph SE16.6 kmh SE 16.8 mph27.0 kmh 29.86 in1011.2 mb 0.00 in0.0 mm 0.00 in0.0 mm 0.00 in0.0 mm
01:51 PM 81.0°F27.2°C 41.5°F5.3°C 25% 13.1 mph SSW21.1 kmh SSW 16.8 mph27.0 kmh 29.86 in1011.2 mb 0.00 in0.0 mm 0.00 in0.0 mm 0.00 in0.0 mm
01:46 PM 81.2°F27.3°C 42.7°F5.9°C 26% 11.6 mph SW18.7 kmh SW 14.1 mph22.7 kmh 29.86 in1011.2 mb 0.00 in0.0 mm 0.00 in0.0 mm 0.00 in0.0 mm
01:41 PM 80.5°F26.9°C 42.1°F5.6°C 26% 10.1 mph S16.3 kmh S 14.1 mph22.7 kmh 29.86 in1011.2 mb 0.00 in0.0 mm 0.00 in0.0 mm 0.00 in0.0 mm
01:36 PM 80.6°F27.0°C 41.2°F5.1°C 25% 12.7 mph SSE20.4 kmh SSE 16.1 mph25.9 kmh 29.86 in1011.2 mb 0.00 in0.0 mm 0.00 in0.0 mm 0.00 in0.0 mm
01:31 PM 80.3°F26.8°C 40.9°F4.9°C 25% 14.2 mph S22.9 kmh S 16.1 mph25.9 kmh 29.86 in1011.2 mb 0.00 in0.0 mm 0.00 in0.0 mm 0.00 in0.0 mm
01:26 PM 79.6°F26.4°C 40.2°F4.6°C 25% 10.7 mph SE17.2 kmh SE 16.8 mph27.0 kmh 29.87 in1011.5 mb 0.00 in0.0 mm 0.00 in0.0 mm 0.00 in0.0 mm
01:21 PM 79.9°F26.6°C 39.5°F4.2°C 24% 13.3 mph SSE21.4 kmh SSE 16.8 mph27.0 kmh 29.86 in1011.2 mb 0.00 in0.0 mm 0.00 in0.0 mm 0.00 in0.0 mm
01:17 PM 80.5°F26.9°C 40.1°F4.5°C 24% 12.9 mph SSE20.8 kmh SSE 16.6 mph26.7 kmh 29.86 in1011.2 mb 0.00 in0.0 mm 0.00 in0.0 mm 0.00 in0.0 mm
01:12 PM 81.2°F27.3°C 41.7°F5.4°C 25% 10.4 mph S16.7 kmh S 17.2 mph27.7 kmh 29.87 in1011.5 mb 0.00 in0.0 mm 0.00 in0.0 mm 0.00 in0.0 mm
01:07 PM 81.7°F27.6°C 42.1°F5.6°C 25% 12.9 mph SSE20.8 kmh SSE 18.8 mph30.3 kmh 29.87 in1011.5 mb 0.00 in0.0 mm 0.00 in0.0 mm 0.00 in0.0 mm
01:02 PM 82.1°F27.8°C 41.3°F5.2°C 24% 15.4 mph S24.8 kmh S 18.8 mph30.3 kmh 29.87 in1011.5 mb 0.00 in0.0 mm 0.00 in0.0 mm 0.00 in0.0 mm
12:56 PM 82.6°F28.1°C 41.8°F5.4°C 24% 12.2 mph S19.6 kmh S 14.3 mph23.0 kmh 29.87 in1011.5 mb 0.00 in0.0 mm 0.00 in0.0 mm 0.00 in0.0 mm
12:51 PM 83.0°F28.3°C 43.1°F6.2°C 25% 13.9 mph S22.4 kmh S 17.2 mph27.7 kmh 29.87 in1011.5 mb 0.00 in0.0 mm 0.00 in0.0 mm 0.00 in0.0 mm
12:46 PM 82.8°F28.2°C 44.0°F6.7°C 26% 13.9 mph SE22.4 kmh SE 17.2 mph27.7 kmh 29.87 in1011.5 mb 0.00 in0.0 mm 0.00 in0.0 mm 0.00 in0.0 mm
12:41 PM 82.4°F28.0°C 43.8°F6.6°C 26% 12.9 mph S20.8 kmh S 16.6 mph26.7 kmh 29.87 in1011.5 mb 0.00 in0.0 mm 0.00 in0.0 mm 0.00 in0.0 mm
12:36 PM 82.4°F28.0°C 43.8°F6.6°C 26% 9.9 mph SE15.9 kmh SE 12.1 mph19.5 kmh 29.87 in1011.5 mb 0.00 in0.0 mm 0.00 in0.0 mm 0.00 in0.0 mm
12:31 PM 81.9°F27.7°C 43.3°F6.3°C 26% 11.9 mph SSW19.2 kmh SSW 15.0 mph24.1 kmh 29.87 in1011.5 mb 0.00 in0.0 mm 0.00 in0.0 mm 0.00 in0.0 mm
12:26 PM 82.4°F28.0°C 42.7°F5.9°C 25% 11.6 mph S18.7 kmh S 15.0 mph24.1 kmh 29.87 in1011.5 mb 0.00 in0.0 mm 0.00 in0.0 mm 0.00 in0.0 mm
12:21 PM 82.4°F28.0°C 45.8°F7.7°C 28% 12.2 mph SE19.6 kmh SE 15.0 mph24.1 kmh 29.87 in1011.5 mb 0.00 in0.0 mm 0.00 in0.0 mm 0.00 in0.0 mm
12:16 PM 81.9°F27.7°C 44.3°F6.8°C 27% 11.0 mph S17.7 kmh S 12.8 mph20.6 kmh 29.87 in1011.5 mb 0.00 in0.0 mm 0.00 in0.0 mm 0.00 in0.0 mm
12:11 PM 81.5°F27.5°C 46.1°F7.8°C 29% 9.1 mph SE14.6 kmh SE 13.2 mph21.2 kmh 29.88 in1011.9 mb 0.00 in0.0 mm 0.00 in0.0 mm 0.00 in0.0 mm
12:06 PM 81.2°F27.3°C 45.8°F7.7°C 29% 10.0 mph SE16.1 kmh SE 13.2 mph21.2 kmh 29.88 in1011.9 mb 0.00 in0.0 mm 0.00 in0.0 mm 0.00 in0.0 mm
12:01 PM 80.6°F27.0°C 45.4°F7.4°C 29% 9.5 mph SSW15.3 kmh SSW 17.2 mph27.7 kmh 29.88 in1011.9 mb 0.00 in0.0 mm 0.00 in0.0 mm 0.00 in0.0 mm
11:56 AM 80.1°F26.7°C 46.0°F7.8°C 30% 9.9 mph SSW15.9 kmh SSW 17.2 mph27.7 kmh 29.88 in1011.9 mb 0.00 in0.0 mm 0.00 in0.0 mm 0.00 in0.0 mm
11:51 AM 79.4°F26.3°C 44.3°F6.8°C 29% 12.1 mph SSE19.5 kmh SSE 17.2 mph27.7 kmh 29.88 in1011.9 mb 0.00 in0.0 mm 0.00 in0.0 mm 0.00 in0.0 mm
11:46 AM 79.4°F26.3°C 44.3°F6.8°C 29% 9.8 mph SSE15.8 kmh SSE 13.2 mph21.2 kmh 29.89 in1012.2 mb 0.00 in0.0 mm 0.00 in0.0 mm 0.00 in0.0 mm
11:41 AM 79.6°F26.4°C 44.5°F6.9°C 29% 8.8 mph SSE14.2 kmh SSE 12.1 mph19.5 kmh 29.89 in1012.2 mb 0.00 in0.0 mm 0.00 in0.0 mm 0.00 in0.0 mm
11:36 AM 79.4°F26.3°C 44.3°F6.8°C 29% 9.2 mph ESE14.8 kmh ESE 17.7 mph28.5 kmh 29.89 in1012.2 mb 0.00 in0.0 mm 0.00 in0.0 mm 0.00 in0.0 mm
11:31 AM 79.6°F26.4°C 43.4°F6.3°C 28% 8.7 mph E14.0 kmh E 18.3 mph29.5 kmh 29.89 in1012.2 mb 0.00 in0.0 mm 0.00 in0.0 mm 0.00 in0.0 mm
11:26 AM 79.7°F26.5°C 43.6°F6.4°C 28% 8.9 mph E14.3 kmh E 18.3 mph29.5 kmh 29.89 in1012.2 mb 0.00 in0.0 mm 0.00 in0.0 mm 0.00 in0.0 mm
11:21 AM 80.3°F26.8°C 46.1°F7.8°C 30% 12.6 mph E20.3 kmh E 15.0 mph24.1 kmh 29.89 in1012.2 mb 0.00 in0.0 mm 0.00 in0.0 mm 0.00 in0.0 mm
11:16 AM 80.1°F26.7°C 47.5°F8.6°C 32% 6.3 mph ESE10.1 kmh ESE 11.2 mph18.0 kmh 29.89 in1012.2 mb 0.00 in0.0 mm 0.00 in0.0 mm 0.00 in0.0 mm
11:11 AM 79.0°F26.1°C 45.7°F7.6°C 31% 6.9 mph SSE11.1 kmh SSE 11.2 mph18.0 kmh 29.89 in1012.2 mb 0.00 in0.0 mm 0.00 in0.0 mm 0.00 in0.0 mm
11:06 AM 78.5°F25.8°C 45.3°F7.4°C 31% 9.3 mph S15.0 kmh S 14.3 mph23.0 kmh 29.89 in1012.2 mb 0.00 in0.0 mm 0.00 in0.0 mm 0.00 in0.0 mm
11:01 AM 77.9°F25.5°C 44.1°F6.7°C 30% 10.1 mph S16.3 kmh S 14.3 mph23.0 kmh 29.90 in1012.5 mb 0.00 in0.0 mm 0.00 in0.0 mm 0.00 in0.0 mm
10:56 AM 77.8°F25.4°C 43.9°F6.6°C 30% 10.9 mph ENE17.5 kmh ENE 14.3 mph23.0 kmh 29.90 in1012.5 mb 0.00 in0.0 mm 0.00 in0.0 mm 0.00 in0.0 mm
10:51 AM 77.4°F25.2°C 43.7°F6.5°C 30% 8.7 mph ESE14.0 kmh ESE 14.3 mph23.0 kmh 29.90 in1012.5 mb 0.00 in0.0 mm 0.00 in0.0 mm 0.00 in0.0 mm
10:46 AM 77.4°F25.2°C 45.2°F7.3°C 32% 12.8 mph E20.6 kmh E 13.4 mph21.6 kmh 29.90 in1012.5 mb 0.00 in0.0 mm 0.00 in0.0 mm 0.00 in0.0 mm
10:41 AM 76.5°F24.7°C 45.2°F7.3°C 33% 3.9 mph ESE6.3 kmh ESE 11.6 mph18.7 kmh 29.90 in1012.5 mb 0.00 in0.0 mm 0.00 in0.0 mm 0.00 in0.0 mm
10:36 AM 75.2°F24.0°C 44.0°F6.7°C 33% 10.1 mph ESE16.3 kmh ESE 12.1 mph19.5 kmh 29.90 in1012.5 mb 0.00 in0.0 mm 0.00 in0.0 mm 0.00 in0.0 mm
10:31 AM 74.7°F23.7°C 42.8°F6.0°C 32% 10.5 mph E16.9 kmh E 12.1 mph19.5 kmh 29.90 in1012.5 mb 0.00 in0.0 mm 0.00 in0.0 mm 0.00 in0.0 mm
10:26 AM 74.3°F23.5°C 42.5°F5.8°C 32% 7.9 mph E12.7 kmh E 15.0 mph24.1 kmh 29.91 in1012.9 mb 0.00 in0.0 mm 0.00 in0.0 mm 0.00 in0.0 mm
10:21 AM 74.2°F23.4°C 40.8°F4.9°C 30% 12.8 mph E20.6 kmh E 15.0 mph24.1 kmh 29.90 in1012.5 mb 0.00 in0.0 mm 0.00 in0.0 mm 0.00 in0.0 mm
10:16 AM 74.0°F23.3°C 42.9°F6.1°C 33% 11.5 mph E18.5 kmh E 12.8 mph20.6 kmh 29.91 in1012.9 mb 0.00 in0.0 mm 0.00 in0.0 mm 0.00 in0.0 mm
10:11 AM 73.4°F23.0°C 41.7°F5.4°C 32% 9.1 mph E14.6 kmh E 13.9 mph22.4 kmh 29.91 in1012.9 mb 0.00 in0.0 mm 0.00 in0.0 mm 0.00 in0.0 mm
10:06 AM 73.4°F23.0°C 43.9°F6.6°C 35% 7.9 mph E12.7 kmh E 13.9 mph22.4 kmh 29.91 in1012.9 mb 0.00 in0.0 mm 0.00 in0.0 mm 0.00 in0.0 mm
10:01 AM 73.3°F22.9°C 43.7°F6.5°C 35% 10.2 mph NE16.4 kmh NE 12.1 mph19.5 kmh 29.91 in1012.9 mb 0.00 in0.0 mm 0.00 in0.0 mm 0.00 in0.0 mm
09:55 AM 72.9°F22.7°C 46.4°F8.0°C 39% 6.5 mph E10.5 kmh E 10.5 mph16.9 kmh 29.91 in1012.9 mb 0.00 in0.0 mm 0.00 in0.0 mm 0.00 in0.0 mm
09:50 AM 72.4°F22.4°C 46.0°F7.8°C 39% 5.9 mph ESE9.5 kmh ESE 10.5 mph16.9 kmh 29.91 in1012.9 mb 0.00 in0.0 mm 0.00 in0.0 mm 0.00 in0.0 mm
09:45 AM 71.8°F22.1°C 46.3°F7.9°C 40% 10.3 mph ENE16.6 kmh ENE 10.5 mph16.9 kmh 29.92 in1013.2 mb 0.00 in0.0 mm 0.00 in0.0 mm 0.00 in0.0 mm
09:41 AM 71.1°F21.7°C 45.6°F7.6°C 40% 6.7 mph E10.8 kmh E 9.2 mph14.8 kmh 29.92 in1013.2 mb 0.00 in0.0 mm 0.00 in0.0 mm 0.00 in0.0 mm
09:36 AM 70.4°F21.3°C 44.9°F7.2°C 40% 6.6 mph E10.6 kmh E 8.5 mph13.7 kmh 29.92 in1013.2 mb 0.00 in0.0 mm 0.00 in0.0 mm 0.00 in0.0 mm
09:31 AM 69.3°F20.7°C 44.6°F7.0°C 41% 2.8 mph E4.5 kmh E 8.3 mph13.4 kmh 29.92 in1013.2 mb 0.00 in0.0 mm 0.00 in0.0 mm 0.00 in0.0 mm
09:26 AM 68.2°F20.1°C 44.2°F6.8°C 42% 4.3 mph E6.9 kmh E 6.5 mph10.5 kmh 29.92 in1013.2 mb 0.00 in0.0 mm 0.00 in0.0 mm 0.00 in0.0 mm
09:21 AM 67.3°F19.6°C 42.2°F5.7°C 40% 4.6 mph ENE7.4 kmh ENE 7.6 mph12.2 kmh 29.92 in1013.2 mb 0.00 in0.0 mm 0.00 in0.0 mm 0.00 in0.0 mm
09:16 AM 67.0°F19.4°C 41.1°F5.1°C 39% 5.9 mph 9.5 kmh 7.6 mph12.2 kmh 29.92 in1013.2 mb 0.00 in0.0 mm 0.00 in0.0 mm 0.00 in0.0 mm
09:11 AM 66.8°F19.3°C 42.9°F6.1°C 42% 3.7 mph NE6.0 kmh NE 4.7 mph7.6 kmh 29.92 in1013.2 mb 0.00 in0.0 mm 0.00 in0.0 mm 0.00 in0.0 mm
09:06 AM 66.2°F19.0°C 44.2°F6.8°C 45% 3.0 mph ENE4.8 kmh ENE 6.7 mph10.8 kmh 29.93 in1013.5 mb 0.00 in0.0 mm 0.00 in0.0 mm 0.00 in0.0 mm
09:01 AM 65.7°F18.7°C 43.7°F6.5°C 45% 5.5 mph NE8.9 kmh NE 7.6 mph12.2 kmh 29.93 in1013.5 mb 0.00 in0.0 mm 0.00 in0.0 mm 0.00 in0.0 mm
08:55 AM 65.2°F18.4°C 44.9°F7.2°C 48% 5.8 mph NNE9.3 kmh NNE 7.6 mph12.2 kmh 29.93 in1013.5 mb 0.00 in0.0 mm 0.00 in0.0 mm 0.00 in0.0 mm
08:50 AM 64.6°F18.1°C 48.0°F8.9°C 55% 2.7 mph ENE4.3 kmh ENE 3.6 mph5.8 kmh 29.93 in1013.5 mb 0.00 in0.0 mm 0.00 in0.0 mm 0.00 in0.0 mm
08:45 AM 63.5°F17.5°C 48.4°F9.1°C 58% 1.1 mph SE1.8 kmh SE 2.5 mph4.0 kmh 29.93 in1013.5 mb 0.00 in0.0 mm 0.00 in0.0 mm 0.00 in0.0 mm
08:40 AM 62.3°F16.8°C 47.8°F8.8°C 59% 1.9 mph SE3.1 kmh SE 2.9 mph4.7 kmh 29.93 in1013.5 mb 0.00 in0.0 mm 0.00 in0.0 mm 0.00 in0.0 mm
08:35 AM 61.2°F16.2°C 46.8°F8.2°C 59% 2.0 mph S3.2 kmh S 2.9 mph4.7 kmh 29.94 in1013.9 mb 0.00 in0.0 mm 0.00 in0.0 mm 0.00 in0.0 mm
08:30 AM 60.1°F15.6°C 44.8°F7.1°C 57% 1.1 mph WSW1.8 kmh WSW 2.5 mph4.0 kmh 29.94 in1013.9 mb 0.00 in0.0 mm 0.00 in0.0 mm 0.00 in0.0 mm
08:25 AM 59.4°F15.2°C 44.7°F7.1°C 58% 1.5 mph NW2.4 kmh NW 2.2 mph3.5 kmh 29.94 in1013.9 mb 0.00 in0.0 mm 0.00 in0.0 mm 0.00 in0.0 mm
08:21 AM 58.7°F14.8°C 44.8°F7.1°C 60% 1.6 mph WSW2.6 kmh WSW 2.5 mph4.0 kmh 29.94 in1013.9 mb 0.00 in0.0 mm 0.00 in0.0 mm 0.00 in0.0 mm
08:16 AM 57.6°F14.2°C 43.9°F6.6°C 60% 0.4 mph NW0.6 kmh NW 2.5 mph4.0 kmh 29.94 in1013.9 mb 0.00 in0.0 mm 0.00 in0.0 mm 0.00 in0.0 mm
08:11 AM 56.7°F13.7°C 44.2°F6.8°C 63% Calm Calm 2.2 mph3.5 kmh 29.94 in1013.9 mb 0.00 in0.0 mm 0.00 in0.0 mm 0.00 in0.0 mm
08:06 AM 55.8°F13.2°C 43.4°F6.3°C 63% 2.0 mph E3.2 kmh E 2.2 mph3.5 kmh 29.94 in1013.9 mb 0.00 in0.0 mm 0.00 in0.0 mm 0.00 in0.0 mm
08:01 AM 54.9°F12.7°C 42.9°F6.1°C 64% 1.4 mph NE2.3 kmh NE 2.7 mph4.3 kmh 29.94 in1013.9 mb 0.00 in0.0 mm 0.00 in0.0 mm 0.00 in0.0 mm
07:55 AM 53.6°F12.0°C 42.1°F5.6°C 65% 1.5 mph ENE2.4 kmh ENE 4.0 mph6.4 kmh 29.94 in1013.9 mb 0.00 in0.0 mm 0.00 in0.0 mm 0.00 in0.0 mm
07:50 AM 52.9°F11.6°C 41.4°F5.2°C 65% 3.6 mph NE5.8 kmh NE 4.0 mph6.4 kmh 29.94 in1013.9 mb 0.00 in0.0 mm 0.00 in0.0 mm 0.00 in0.0 mm
07:45 AM 52.4°F11.3°C 41.3°F5.2°C 66% 1.9 mph NE3.1 kmh NE 4.3 mph6.9 kmh 29.95 in1014.2 mb 0.00 in0.0 mm 0.00 in0.0 mm 0.00 in0.0 mm
07:40 AM 51.8°F11.0°C 40.9°F4.9°C 66% 3.9 mph NE6.3 kmh NE 4.3 mph6.9 kmh 29.94 in1013.9 mb 0.00 in0.0 mm 0.00 in0.0 mm 0.00 in0.0 mm
07:35 AM 51.5°F10.8°C 40.9°F4.9°C 67% 1.2 mph ENE1.9 kmh ENE 3.6 mph5.8 kmh 29.95 in1014.2 mb 0.00 in0.0 mm 0.00 in0.0 mm 0.00 in0.0 mm
07:30 AM 50.9°F10.5°C 40.3°F4.6°C 67% 3.0 mph NE4.8 kmh NE 4.0 mph6.4 kmh 29.95 in1014.2 mb 0.00 in0.0 mm 0.00 in0.0 mm 0.00 in0.0 mm
07:25 AM 50.6°F10.3°C 40.4°F4.7°C 68% 3.7 mph NE6.0 kmh NE 4.0 mph6.4 kmh 29.95 in1014.2 mb 0.00 in0.0 mm 0.00 in0.0 mm 0.00 in0.0 mm
07:20 AM 50.2°F10.1°C 39.7°F4.3°C 67% 2.7 mph ENE4.3 kmh ENE 4.0 mph6.4 kmh 29.95 in1014.2 mb 0.00 in0.0 mm 0.00 in0.0 mm 0.00 in0.0 mm
07:15 AM 50.0°F10.0°C 39.1°F3.9°C 66% 2.7 mph NE4.3 kmh NE 4.3 mph6.9 kmh 29.95 in1014.2 mb 0.00 in0.0 mm 0.00 in0.0 mm 0.00 in0.0 mm
07:10 AM 50.0°F10.0°C 39.5°F4.2°C 67% 2.7 mph E4.3 kmh E 4.3 mph6.9 kmh 29.95 in1014.2 mb 0.00 in0.0 mm 0.00 in0.0 mm 0.00 in0.0 mm
07:05 AM 49.9°F9.9°C 38.9°F3.8°C 66% 4.1 mph ENE6.6 kmh ENE 4.9 mph7.9 kmh 29.94 in1013.9 mb 0.00 in0.0 mm 0.00 in0.0 mm 0.00 in0.0 mm
07:00 AM 49.3°F9.6°C 38.4°F3.6°C 66% 3.7 mph E6.0 kmh E 4.9 mph7.9 kmh 29.95 in1014.2 mb 0.00 in0.0 mm 0.00 in0.0 mm 0.00 in0.0 mm
06:55 AM 49.0°F9.4°C 38.1°F3.4°C 66% 4.7 mph NE7.6 kmh NE 4.7 mph7.6 kmh 29.95 in1014.2 mb 0.00 in0.0 mm 0.00 in0.0 mm 0.00 in0.0 mm
06:50 AM 48.4°F9.1°C 37.9°F3.3°C 67% 3.7 mph ENE6.0 kmh ENE 5.4 mph8.7 kmh 29.95 in1014.2 mb 0.00 in0.0 mm 0.00 in0.0 mm 0.00 in0.0 mm
06:45 AM 47.7°F8.7°C 37.6°F3.1°C 68% 4.3 mph ENE6.9 kmh ENE 5.4 mph8.7 kmh 29.95 in1014.2 mb 0.00 in0.0 mm 0.00 in0.0 mm 0.00 in0.0 mm
06:40 AM 47.0°F8.3°C 37.4°F3.0°C 69% 4.8 mph ENE7.7 kmh ENE 5.1 mph8.2 kmh 29.95 in1014.2 mb 0.00 in0.0 mm 0.00 in0.0 mm 0.00 in0.0 mm
06:35 AM 46.3°F7.9°C 37.1°F2.8°C 70% 4.0 mph ENE6.4 kmh ENE 4.0 mph6.4 kmh 29.95 in1014.2 mb 0.00 in0.0 mm 0.00 in0.0 mm 0.00 in0.0 mm
06:30 AM 45.7°F7.6°C 36.2°F2.3°C 69% 2.3 mph NE3.7 kmh NE 2.9 mph4.7 kmh 29.95 in1014.2 mb 0.00 in0.0 mm 0.00 in0.0 mm 0.00 in0.0 mm
06:25 AM 45.4°F7.4°C 35.8°F2.1°C 69% 1.7 mph NE2.7 kmh NE 2.2 mph3.5 kmh 29.95 in1014.2 mb 0.00 in0.0 mm 0.00 in0.0 mm 0.00 in0.0 mm
06:20 AM 45.4°F7.4°C 35.8°F2.1°C 69% 0.8 mph NNE1.3 kmh NNE 2.2 mph3.5 kmh 29.94 in1013.9 mb 0.00 in0.0 mm 0.00 in0.0 mm 0.00 in0.0 mm
06:15 AM 45.4°F7.4°C 36.2°F2.3°C 70% 1.7 mph E2.7 kmh E 4.0 mph6.4 kmh 29.95 in1014.2 mb 0.00 in0.0 mm 0.00 in0.0 mm 0.00 in0.0 mm
06:10 AM 45.0°F7.2°C 35.8°F2.1°C 70% 2.8 mph ENE4.5 kmh ENE 4.0 mph6.4 kmh 29.94 in1013.9 mb 0.00 in0.0 mm 0.00 in0.0 mm 0.00 in0.0 mm
06:05 AM 45.0°F7.2°C 35.8°F2.1°C 70% 2.5 mph SE4.0 kmh SE 4.5 mph7.2 kmh 29.94 in1013.9 mb 0.00 in0.0 mm 0.00 in0.0 mm 0.00 in0.0 mm
06:00 AM 44.6°F7.0°C 35.5°F1.9°C 70% 2.9 mph ENE4.7 kmh ENE 4.5 mph7.2 kmh 29.94 in1013.9 mb 0.00 in0.0 mm 0.00 in0.0 mm 0.00 in0.0 mm
05:55 AM 44.3°F6.8°C 35.1°F1.7°C 70% 4.2 mph ENE6.8 kmh ENE 4.5 mph7.2 kmh 29.94 in1013.9 mb 0.00 in0.0 mm 0.00 in0.0 mm 0.00 in0.0 mm
05:50 AM 44.3°F6.8°C 35.1°F1.7°C 70% 2.1 mph ESE3.4 kmh ESE 3.4 mph5.5 kmh 29.94 in1013.9 mb 0.00 in0.0 mm 0.00 in0.0 mm 0.00 in0.0 mm
05:45 AM 44.6°F7.0°C 35.1°F1.7°C 69% 2.0 mph SE3.2 kmh SE 3.8 mph6.1 kmh 29.94 in1013.9 mb 0.00 in0.0 mm 0.00 in0.0 mm 0.00 in0.0 mm
05:40 AM 44.6°F7.0°C 35.1°F1.7°C 69% 2.5 mph ENE4.0 kmh ENE 4.7 mph7.6 kmh 29.94 in1013.9 mb 0.00 in0.0 mm 0.00 in0.0 mm 0.00 in0.0 mm
05:35 AM 44.8°F7.1°C 35.6°F2.0°C 70% 4.6 mph ENE7.4 kmh ENE 4.7 mph7.6 kmh 29.94 in1013.9 mb 0.00 in0.0 mm 0.00 in0.0 mm 0.00 in0.0 mm
05:30 AM 45.2°F7.3°C 35.7°F2.1°C 69% Calm Calm 2.0 mph3.2 kmh 29.94 in1013.9 mb 0.00 in0.0 mm 0.00 in0.0 mm 0.00 in0.0 mm
05:25 AM 45.2°F7.3°C 35.7°F2.1°C 69% 1.9 mph NNW3.1 kmh NNW 2.0 mph3.2 kmh 29.94 in1013.9 mb 0.00 in0.0 mm 0.00 in0.0 mm 0.00 in0.0 mm
05:20 AM 45.0°F7.2°C 35.5°F1.9°C 69% 0.8 mph NE1.3 kmh NE 1.3 mph2.1 kmh 29.94 in1013.9 mb 0.00 in0.0 mm 0.00 in0.0 mm 0.00 in0.0 mm
05:15 AM 45.0°F7.2°C 35.1°F1.7°C 68% 0.8 mph NE1.3 kmh NE 1.3 mph2.1 kmh 29.94 in1013.9 mb 0.00 in0.0 mm 0.00 in0.0 mm 0.00 in0.0 mm
05:10 AM 45.2°F7.3°C 35.2°F1.8°C 68% 0.9 mph NE1.4 kmh NE 1.6 mph2.6 kmh 29.94 in1013.9 mb 0.00 in0.0 mm 0.00 in0.0 mm 0.00 in0.0 mm
05:05 AM 45.4°F7.4°C 35.4°F1.9°C 68% 0.4 mph NE0.6 kmh NE 1.6 mph2.6 kmh 29.94 in1013.9 mb 0.00 in0.0 mm 0.00 in0.0 mm 0.00 in0.0 mm
05:00 AM 45.7°F7.6°C 35.7°F2.1°C 68% Calm Calm 2.5 mph4.0 kmh 29.95 in1014.2 mb 0.00 in0.0 mm 0.00 in0.0 mm 0.00 in0.0 mm
04:54 AM 45.7°F7.6°C 35.7°F2.1°C 68% 0.2 mph NNE0.3 kmh NNE 3.6 mph5.8 kmh 29.95 in1014.2 mb 0.00 in0.0 mm 0.00 in0.0 mm 0.00 in0.0 mm
04:49 AM 46.1°F7.8°C 36.1°F2.3°C 68% 2.8 mph NNE4.5 kmh NNE 3.6 mph5.8 kmh 29.95 in1014.2 mb 0.00 in0.0 mm 0.00 in0.0 mm 0.00 in0.0 mm
04:45 AM 46.1°F7.8°C 36.1°F2.3°C 68% 1.5 mph NNE2.4 kmh NNE 4.3 mph6.9 kmh 29.95 in1014.2 mb 0.00 in0.0 mm 0.00 in0.0 mm 0.00 in0.0 mm
04:40 AM 46.3°F7.9°C 36.3°F2.4°C 68% 2.2 mph NE3.5 kmh NE 4.3 mph6.9 kmh 29.95 in1014.2 mb 0.00 in0.0 mm 0.00 in0.0 mm 0.00 in0.0 mm
04:35 AM 46.1°F7.8°C 36.6°F2.6°C 69% 3.6 mph NNE5.8 kmh NNE 3.8 mph6.1 kmh 29.96 in1014.6 mb 0.00 in0.0 mm 0.00 in0.0 mm 0.00 in0.0 mm
04:30 AM 46.3°F7.9°C 36.7°F2.6°C 69% 1.5 mph NNE2.4 kmh NNE 4.0 mph6.4 kmh 29.96 in1014.6 mb 0.00 in0.0 mm 0.00 in0.0 mm 0.00 in0.0 mm
04:25 AM 46.1°F7.8°C 36.9°F2.7°C 70% 3.7 mph 6.0 kmh 4.0 mph6.4 kmh 29.96 in1014.6 mb 0.00 in0.0 mm 0.00 in0.0 mm 0.00 in0.0 mm
04:20 AM 45.7°F7.6°C 36.9°F2.7°C 71% 1.6 mph NNE2.6 kmh NNE 2.0 mph3.2 kmh 29.96 in1014.6 mb 0.00 in0.0 mm 0.00 in0.0 mm 0.00 in0.0 mm
04:15 AM 45.7°F7.6°C 36.9°F2.7°C 71% 0.4 mph ESE0.6 kmh ESE 0.7 mph1.1 kmh 29.96 in1014.6 mb 0.00 in0.0 mm 0.00 in0.0 mm 0.00 in0.0 mm
04:10 AM 45.9°F7.7°C 36.7°F2.6°C 70% Calm Calm -- 29.96 in1014.6 mb 0.00 in0.0 mm 0.00 in0.0 mm 0.00 in0.0 mm
04:05 AM 46.1°F7.8°C 36.9°F2.7°C 70% Calm Calm 1.6 mph2.6 kmh 29.96 in1014.6 mb 0.00 in0.0 mm 0.00 in0.0 mm 0.00 in0.0 mm
04:00 AM 46.3°F7.9°C 37.1°F2.8°C 70% 0.6 mph ESE1.0 kmh ESE 2.2 mph3.5 kmh 29.96 in1014.6 mb 0.00 in0.0 mm 0.00 in0.0 mm 0.00 in0.0 mm
03:54 AM 46.4°F8.0°C 36.9°F2.7°C 69% 1.8 mph ESE2.9 kmh ESE 2.5 mph4.0 kmh 29.96 in1014.6 mb 0.00 in0.0 mm 0.00 in0.0 mm 0.00 in0.0 mm
03:49 AM 46.6°F8.1°C 37.0°F2.8°C 69% 2.2 mph ESE3.5 kmh ESE 2.5 mph4.0 kmh 29.96 in1014.6 mb 0.00 in0.0 mm 0.00 in0.0 mm 0.00 in0.0 mm
03:44 AM 46.8°F8.2°C 37.2°F2.9°C 69% 1.8 mph ENE2.9 kmh ENE 2.0 mph3.2 kmh 29.96 in1014.6 mb 0.00 in0.0 mm 0.00 in0.0 mm 0.00 in0.0 mm
03:39 AM 47.0°F8.3°C 37.4°F3.0°C 69% Calm Calm 0.7 mph1.1 kmh 29.96 in1014.6 mb 0.00 in0.0 mm 0.00 in0.0 mm 0.00 in0.0 mm
03:34 AM 47.0°F8.3°C 37.4°F3.0°C 69% Calm Calm 3.4 mph5.5 kmh 29.96 in1014.6 mb 0.00 in0.0 mm 0.00 in0.0 mm 0.00 in0.0 mm
03:29 AM 47.0°F8.3°C 37.0°F2.8°C 68% 2.0 mph 3.2 kmh 3.6 mph5.8 kmh 29.96 in1014.6 mb 0.00 in0.0 mm 0.00 in0.0 mm 0.00 in0.0 mm
03:24 AM 47.0°F8.3°C 37.0°F2.8°C 68% 3.3 mph 5.3 kmh 3.6 mph5.8 kmh 29.96 in1014.6 mb 0.00 in0.0 mm 0.00 in0.0 mm 0.00 in0.0 mm
03:19 AM 47.0°F8.3°C 37.0°F2.8°C 68% 3.3 mph 5.3 kmh 4.5 mph7.2 kmh 29.96 in1014.6 mb 0.00 in0.0 mm 0.00 in0.0 mm 0.00 in0.0 mm
03:14 AM 47.0°F8.3°C 37.0°F2.8°C 68% 1.2 mph NNE1.9 kmh NNE 4.5 mph7.2 kmh 29.96 in1014.6 mb 0.00 in0.0 mm 0.00 in0.0 mm 0.00 in0.0 mm
03:09 AM 47.0°F8.3°C 37.0°F2.8°C 68% 4.1 mph E6.6 kmh E 4.3 mph6.9 kmh 29.96 in1014.6 mb 0.00 in0.0 mm 0.00 in0.0 mm 0.00 in0.0 mm
03:04 AM 47.2°F8.4°C 37.2°F2.9°C 68% 3.0 mph E4.8 kmh E 3.6 mph5.8 kmh 29.96 in1014.6 mb 0.00 in0.0 mm 0.00 in0.0 mm 0.00 in0.0 mm
03:00 AM 47.2°F8.4°C 36.7°F2.6°C 67% 2.5 mph E4.0 kmh E 2.9 mph4.7 kmh 29.96 in1014.6 mb 0.00 in0.0 mm 0.00 in0.0 mm 0.00 in0.0 mm
02:54 AM 47.2°F8.4°C 36.7°F2.6°C 67% 0.3 mph E0.5 kmh E 2.7 mph4.3 kmh 29.96 in1014.6 mb 0.00 in0.0 mm 0.00 in0.0 mm 0.00 in0.0 mm
02:49 AM 47.3°F8.5°C 36.6°F2.6°C 66% 1.5 mph E2.4 kmh E 3.1 mph5.0 kmh 29.96 in1014.6 mb 0.00 in0.0 mm 0.00 in0.0 mm 0.00 in0.0 mm
02:44 AM 47.3°F8.5°C 36.6°F2.6°C 66% 1.5 mph E2.4 kmh E 4.7 mph7.6 kmh 29.96 in1014.6 mb 0.00 in0.0 mm 0.00 in0.0 mm 0.00 in0.0 mm
02:39 AM 47.3°F8.5°C 36.2°F2.3°C 65% 3.2 mph E5.1 kmh E 4.7 mph7.6 kmh 29.96 in1014.6 mb 0.00 in0.0 mm 0.00 in0.0 mm 0.00 in0.0 mm
02:34 AM 47.7°F8.7°C 36.5°F2.5°C 65% 2.5 mph SE4.0 kmh SE 5.1 mph8.2 kmh 29.96 in1014.6 mb 0.00 in0.0 mm 0.00 in0.0 mm 0.00 in0.0 mm
02:29 AM 47.9°F8.8°C 36.6°F2.6°C 65% 2.4 mph 3.9 kmh 5.1 mph8.2 kmh 29.96 in1014.6 mb 0.00 in0.0 mm 0.00 in0.0 mm 0.00 in0.0 mm
02:24 AM 47.9°F8.8°C 36.6°F2.6°C 65% 4.3 mph 6.9 kmh 4.7 mph7.6 kmh 29.96 in1014.6 mb 0.00 in0.0 mm 0.00 in0.0 mm 0.00 in0.0 mm
02:19 AM 48.2°F9.0°C 37.0°F2.8°C 65% 3.9 mph 6.3 kmh 6.5 mph10.5 kmh 29.96 in1014.6 mb 0.00 in0.0 mm 0.00 in0.0 mm 0.00 in0.0 mm
02:14 AM 48.6°F9.2°C 37.7°F3.2°C 66% 6.4 mph NNE10.3 kmh NNE 6.5 mph10.5 kmh 29.96 in1014.6 mb 0.00 in0.0 mm 0.00 in0.0 mm 0.00 in0.0 mm
02:09 AM 48.6°F9.2°C 37.7°F3.2°C 66% 5.1 mph NE8.2 kmh NE 6.9 mph11.1 kmh 29.96 in1014.6 mb 0.00 in0.0 mm 0.00 in0.0 mm 0.00 in0.0 mm
02:04 AM 48.4°F9.1°C 37.2°F2.9°C 65% 5.8 mph 9.3 kmh 6.9 mph11.1 kmh 29.96 in1014.6 mb 0.00 in0.0 mm 0.00 in0.0 mm 0.00 in0.0 mm
01:59 AM 48.4°F9.1°C 37.5°F3.1°C 66% 3.2 mph N5.1 kmh N 5.1 mph8.2 kmh 29.97 in1014.9 mb 0.00 in0.0 mm 0.00 in0.0 mm 0.00 in0.0 mm
01:54 AM 48.4°F9.1°C 37.5°F3.1°C 66% 2.5 mph NW4.0 kmh NW 9.4 mph15.1 kmh 29.97 in1014.9 mb 0.00 in0.0 mm 0.00 in0.0 mm 0.00 in0.0 mm
01:49 AM 48.8°F9.3°C 37.9°F3.3°C 66% 6.3 mph NW10.1 kmh NW 13.6 mph21.9 kmh 29.97 in1014.9 mb 0.00 in0.0 mm 0.00 in0.0 mm 0.00 in0.0 mm
01:44 AM 49.0°F9.4°C 38.4°F3.6°C 67% 4.9 mph W7.9 kmh W 13.6 mph21.9 kmh 29.97 in1014.9 mb 0.00 in0.0 mm 0.00 in0.0 mm 0.00 in0.0 mm
01:39 AM 48.2°F9.0°C 37.7°F3.2°C 67% 5.7 mph NNE9.2 kmh NNE 10.5 mph16.9 kmh 29.97 in1014.9 mb 0.00 in0.0 mm 0.00 in0.0 mm 0.00 in0.0 mm
01:34 AM 48.2°F9.0°C 37.0°F2.8°C 65% 3.7 mph E6.0 kmh E 5.6 mph9.0 kmh 29.97 in1014.9 mb 0.00 in0.0 mm 0.00 in0.0 mm 0.00 in0.0 mm
01:29 AM 48.2°F9.0°C 37.0°F2.8°C 65% 3.5 mph E5.6 kmh E 6.9 mph11.1 kmh 29.98 in1015.2 mb 0.00 in0.0 mm 0.00 in0.0 mm 0.00 in0.0 mm
01:24 AM 48.2°F9.0°C 36.6°F2.6°C 64% 5.6 mph NNE9.0 kmh NNE 6.9 mph11.1 kmh 29.98 in1015.2 mb 0.00 in0.0 mm 0.00 in0.0 mm 0.00 in0.0 mm
01:19 AM 48.6°F9.2°C 36.5°F2.5°C 63% 3.5 mph NNE5.6 kmh NNE 3.6 mph5.8 kmh 29.98 in1015.2 mb 0.00 in0.0 mm 0.00 in0.0 mm 0.00 in0.0 mm
01:14 AM 48.8°F9.3°C 37.1°F2.8°C 64% 1.3 mph NNW2.1 kmh NNW 3.4 mph5.5 kmh 29.98 in1015.2 mb 0.00 in0.0 mm 0.00 in0.0 mm 0.00 in0.0 mm
01:09 AM 49.0°F9.4°C 37.3°F2.9°C 64% 3.3 mph NW5.3 kmh NW 3.4 mph5.5 kmh 29.98 in1015.2 mb 0.00 in0.0 mm 0.00 in0.0 mm 0.00 in0.0 mm
01:04 AM 49.3°F9.6°C 37.6°F3.1°C 64% 2.0 mph S3.2 kmh S 2.5 mph4.0 kmh 29.98 in1015.2 mb 0.00 in0.0 mm 0.00 in0.0 mm 0.00 in0.0 mm
12:58 AM 49.5°F9.7°C 37.8°F3.2°C 64% 1.5 mph S2.4 kmh S 2.0 mph3.2 kmh 29.98 in1015.2 mb 0.00 in0.0 mm 0.00 in0.0 mm 0.00 in0.0 mm
12:53 AM 50.0°F10.0°C 38.4°F3.6°C 64% 0.9 mph SSW1.4 kmh SSW 4.7 mph7.6 kmh 29.98 in1015.2 mb 0.00 in0.0 mm 0.00 in0.0 mm 0.00 in0.0 mm
12:49 AM 50.2°F10.1°C 38.4°F3.6°C 64% 2.2 mph SW3.5 kmh SW 5.4 mph8.7 kmh 29.98 in1015.2 mb 0.00 in0.0 mm 0.00 in0.0 mm 0.00 in0.0 mm
12:44 AM 50.4°F10.2°C 38.6°F3.7°C 64% 5.1 mph NE8.2 kmh NE 7.6 mph12.2 kmh 29.98 in1015.2 mb 0.00 in0.0 mm 0.00 in0.0 mm 0.00 in0.0 mm
12:39 AM 50.4°F10.2°C 38.6°F3.7°C 64% 5.4 mph NE8.7 kmh NE 8.3 mph13.4 kmh 29.98 in1015.2 mb 0.00 in0.0 mm 0.00 in0.0 mm 0.00 in0.0 mm
12:34 AM 50.4°F10.2°C 38.6°F3.7°C 64% 6.5 mph NE10.5 kmh NE 8.3 mph13.4 kmh 29.98 in1015.2 mb 0.00 in0.0 mm 0.00 in0.0 mm 0.00 in0.0 mm
12:29 AM 50.0°F10.0°C 37.5°F3.1°C 62% 6.1 mph 9.8 kmh 6.3 mph10.1 kmh 29.98 in1015.2 mb 0.00 in0.0 mm 0.00 in0.0 mm 0.00 in0.0 mm
12:24 AM 50.4°F10.2°C 37.8°F3.2°C 62% 3.5 mph N5.6 kmh N 4.5 mph7.2 kmh 29.98 in1015.2 mb 0.00 in0.0 mm 0.00 in0.0 mm 0.00 in0.0 mm
12:19 AM 50.8°F10.4°C 38.2°F3.4°C 62% 2.1 mph NW3.4 kmh NW 3.4 mph5.5 kmh 29.98 in1015.2 mb 0.00 in0.0 mm 0.00 in0.0 mm 0.00 in0.0 mm
12:14 AM 50.9°F10.5°C 38.0°F3.3°C 61% 0.8 mph 1.3 kmh 4.0 mph6.4 kmh 29.98 in1015.2 mb 0.00 in0.0 mm 0.00 in0.0 mm 0.00 in0.0 mm
12:09 AM 51.1°F10.6°C 38.1°F3.4°C 61% 3.3 mph 5.3 kmh 5.6 mph9.0 kmh 29.98 in1015.2 mb 0.00 in0.0 mm 0.00 in0.0 mm 0.00 in0.0 mm
12:04 AM 51.1°F10.6°C 37.7°F3.2°C 60% 4.7 mph 7.6 kmh 5.6 mph9.0 kmh 29.98 in1015.2 mb 0.00 in0.0 mm 0.00 in0.0 mm 0.00 in0.0 mm